TimeAKDT,TemperatureF,Dew PointF,Humidity,Sea Level PressureIn,VisibilityMPH,Wind Direction,Wind SpeedMPH,Gust SpeedMPH,PrecipitationIn,Events,Conditions,WindDirDegrees,DateUTC
12:53 AM,19.0,-2.0,40,30.09,10.0,Calm,Calm,-,N/A,,Clear,0,2013-03-18 08:53:00
1:53 AM,17.1,1.0,50,30.08,10.0,Calm,Calm,-,N/A,,Clear,0,2013-03-18 09:53:00
2:53 AM,17.1,-0.0,47,30.08,10.0,Calm,Calm,-,N/A,,Clear,0,2013-03-18 10:53:00
3:53 AM,17.1,1.9,52,30.07,10.0,Calm,Calm,-,N/A,,Clear,0,2013-03-18 11:53:00
4:53 AM,17.1,-0.9,45,30.06,10.0,Variable,3.5,-,N/A,,Clear,0,2013-03-18 12:53:00
5:53 AM,16.0,-0.0,49,30.05,10.0,Variable,3.5,-,N/A,,Clear,0,2013-03-18 13:53:00
6:53 AM,15.1,1.0,54,30.06,10.0,Calm,Calm,-,N/A,,Clear,0,2013-03-18 14:53:00
7:53 AM,12.9,-0.0,56,30.05,10.0,Calm,Calm,-,N/A,,Clear,0,2013-03-18 15:53:00
8:53 AM,14.0,-0.9,52,30.04,10.0,Calm,Calm,-,N/A,,Clear,0,2013-03-18 16:53:00
9:53 AM,15.1,-0.9,49,30.03,10.0,Calm,Calm,-,N/A,,Clear,0,2013-03-18 17:53:00
10:53 AM,21.9,-2.9,34,30.01,10.0,NE,5.8,-,N/A,,Clear,40,2013-03-18 18:53:00
11:53 AM,26.1,-4.0,27,30.00,10.0,Variable,6.9,-,N/A,,Clear,0,2013-03-18 19:53:00
12:53 PM,25.0,-2.0,31,29.99,10.0,Calm,Calm,-,N/A,,Partly Cloudy,0,2013-03-18 20:53:00
1:53 PM,26.1,3.0,37,29.98,10.0,SW,10.4,-,N/A,,Scattered Clouds,220,2013-03-18 21:53:00
2:53 PM,27.0,8.1,45,29.97,10.0,SSW,13.8,-,N/A,,Mostly Cloudy,210,2013-03-18 22:53:00
3:53 PM,28.0,5.0,38,29.94,10.0,SSW,15.0,-,N/A,,Mostly Cloudy,200,2013-03-18 23:53:00
4:53 PM,28.0,5.0,38,29.94,10.0,SSW,8.1,-,N/A,,Overcast,200,2013-03-19 00:53:00
5:53 PM,28.0,8.1,43,29.93,10.0,SSW,10.4,-,N/A,,Overcast,200,2013-03-19 01:53:00
6:53 PM,27.0,10.9,51,29.91,10.0,SSW,12.7,-,N/A,,Overcast,200,2013-03-19 02:53:00
7:53 PM,26.1,14.0,60,29.91,10.0,SSW,13.8,-,N/A,,Overcast,210,2013-03-19 03:53:00
8:53 PM,25.0,15.1,66,29.91,10.0,SSW,9.2,-,N/A,,Overcast,200,2013-03-19 04:53:00
9:53 PM,25.0,15.1,66,29.90,10.0,SSW,5.8,-,N/A,,Overcast,200,2013-03-19 05:53:00
10:53 PM,24.1,16.0,71,29.89,8.0,Calm,Calm,-,0.00,,Overcast,0,2013-03-19 06:53:00
11:53 PM,24.1,17.1,75,29.88,10.0,Calm,Calm,-,N/A,,Overcast,0,2013-03-19 07:53:00